sensor_id;sensor_type;location;lat;lon;timestamp;P1;durP1;ratioP1;P2;durP2;ratioP2
18084;SDS011;9169;44.492;11.372;2024-03-08T00:00:13;29.97;;;5.33;;
18084;SDS011;9169;44.492;11.372;2024-03-08T00:02:47;32.87;;;5.57;;
18084;SDS011;9169;44.492;11.372;2024-03-08T00:05:17;29.73;;;5.70;;
18084;SDS011;9169;44.492;11.372;2024-03-08T00:07:46;30.00;;;5.77;;
18084;SDS011;9169;44.492;11.372;2024-03-08T00:10:15;30.47;;;5.73;;
18084;SDS011;9169;44.492;11.372;2024-03-08T00:12:44;32.63;;;6.10;;
18084;SDS011;9169;44.492;11.372;2024-03-08T00:15:14;33.97;;;5.40;;
18084;SDS011;9169;44.492;11.372;2024-03-08T00:17:44;28.57;;;6.33;;
18084;SDS011;9169;44.492;11.372;2024-03-08T00:20:18;27.90;;;5.60;;
18084;SDS011;9169;44.492;11.372;2024-03-08T00:22:47;29.40;;;5.10;;
18084;SDS011;9169;44.492;11.372;2024-03-08T00:25:15;27.90;;;5.73;;
18084;SDS011;9169;44.492;11.372;2024-03-08T00:27:45;32.13;;;5.63;;
18084;SDS011;9169;44.492;11.372;2024-03-08T00:30:16;30.77;;;6.20;;
18084;SDS011;9169;44.492;11.372;2024-03-08T00:32:44;31.00;;;4.90;;
18084;SDS011;9169;44.492;11.372;2024-03-08T00:35:13;48.63;;;20.23;;
18084;SDS011;9169;44.492;11.372;2024-03-08T00:37:43;35.80;;;6.57;;
18084;SDS011;9169;44.492;11.372;2024-03-08T00:40:13;38.70;;;10.83;;
18084;SDS011;9169;44.492;11.372;2024-03-08T00:42:42;26.73;;;4.30;;
18084;SDS011;9169;44.492;11.372;2024-03-08T00:45:11;28.90;;;4.63;;
18084;SDS011;9169;44.492;11.372;2024-03-08T00:47:40;28.00;;;4.40;;
18084;SDS011;9169;44.492;11.372;2024-03-08T00:50:10;27.47;;;4.73;;
18084;SDS011;9169;44.492;11.372;2024-03-08T00:52:39;28.00;;;4.60;;
18084;SDS011;9169;44.492;11.372;2024-03-08T00:55:09;100.43;;;11.97;;
18084;SDS011;9169;44.492;11.372;2024-03-08T00:57:39;106.43;;;12.50;;
18084;SDS011;9169;44.492;11.372;2024-03-08T01:00:09;38.23;;;4.50;;
18084;SDS011;9169;44.492;11.372;2024-03-08T01:02:39;32.13;;;5.27;;
18084;SDS011;9169;44.492;11.372;2024-03-08T01:05:08;25.90;;;4.30;;
18084;SDS011;9169;44.492;11.372;2024-03-08T01:07:36;28.70;;;4.20;;
18084;SDS011;9169;44.492;11.372;2024-03-08T01:10:05;27.17;;;4.03;;
18084;SDS011;9169;44.492;11.372;2024-03-08T01:12:38;27.20;;;3.93;;
18084;SDS011;9169;44.492;11.372;2024-03-08T01:15:07;28.17;;;4.43;;
18084;SDS011;9169;44.492;11.372;2024-03-08T01:17:36;29.47;;;4.27;;
18084;SDS011;9169;44.492;11.372;2024-03-08T01:20:05;31.20;;;4.20;;
18084;SDS011;9169;44.492;11.372;2024-03-08T01:22:37;34.17;;;4.50;;
18084;SDS011;9169;44.492;11.372;2024-03-08T01:25:06;29.07;;;4.73;;
18084;SDS011;9169;44.492;11.372;2024-03-08T01:27:35;26.83;;;4.67;;
18084;SDS011;9169;44.492;11.372;2024-03-08T01:30:06;34.23;;;4.87;;
18084;SDS011;9169;44.492;11.372;2024-03-08T01:32:36;44.73;;;5.90;;
18084;SDS011;9169;44.492;11.372;2024-03-08T01:35:05;29.30;;;4.90;;
18084;SDS011;9169;44.492;11.372;2024-03-08T01:37:36;27.63;;;4.80;;
18084;SDS011;9169;44.492;11.372;2024-03-08T01:40:06;33.03;;;4.70;;
18084;SDS011;9169;44.492;11.372;2024-03-08T01:42:39;30.37;;;5.40;;
18084;SDS011;9169;44.492;11.372;2024-03-08T01:45:08;31.67;;;5.60;;
18084;SDS011;9169;44.492;11.372;2024-03-08T01:47:36;28.80;;;5.37;;
18084;SDS011;9169;44.492;11.372;2024-03-08T01:50:06;37.17;;;6.80;;
18084;SDS011;9169;44.492;11.372;2024-03-08T01:52:37;30.80;;;6.20;;
18084;SDS011;9169;44.492;11.372;2024-03-08T01:55:06;33.53;;;5.83;;
18084;SDS011;9169;44.492;11.372;2024-03-08T01:57:35;31.53;;;6.00;;
18084;SDS011;9169;44.492;11.372;2024-03-08T02:00:07;35.00;;;5.90;;
18084;SDS011;9169;44.492;11.372;2024-03-08T02:02:37;34.77;;;6.10;;
18084;SDS011;9169;44.492;11.372;2024-03-08T02:05:10;31.43;;;6.30;;
18084;SDS011;9169;44.492;11.372;2024-03-08T02:07:40;31.70;;;6.60;;
18084;SDS011;9169;44.492;11.372;2024-03-08T02:10:10;35.90;;;6.57;;
18084;SDS011;9169;44.492;11.372;2024-03-08T02:12:40;38.67;;;6.33;;
18084;SDS011;9169;44.492;11.372;2024-03-08T02:15:10;41.10;;;7.33;;
18084;SDS011;9169;44.492;11.372;2024-03-08T02:17:39;43.10;;;7.60;;
18084;SDS011;9169;44.492;11.372;2024-03-08T02:20:08;37.93;;;5.37;;
18084;SDS011;9169;44.492;11.372;2024-03-08T02:22:41;41.30;;;6.70;;
18084;SDS011;9169;44.492;11.372;2024-03-08T02:25:10;47.63;;;7.60;;
18084;SDS011;9169;44.492;11.372;2024-03-08T02:27:39;34.67;;;7.10;;
18084;SDS011;9169;44.492;11.372;2024-03-08T02:30:09;34.87;;;6.80;;
18084;SDS011;9169;44.492;11.372;2024-03-08T02:32:39;34.77;;;6.70;;
18084;SDS011;9169;44.492;11.372;2024-03-08T02:35:08;34.00;;;5.40;;
18084;SDS011;9169;44.492;11.372;2024-03-08T02:37:37;36.70;;;6.30;;
18084;SDS011;9169;44.492;11.372;2024-03-08T02:40:08;46.13;;;7.30;;
18084;SDS011;9169;44.492;11.372;2024-03-08T02:42:39;37.20;;;5.83;;
18084;SDS011;9169;44.492;11.372;2024-03-08T02:45:08;39.60;;;6.60;;
18084;SDS011;9169;44.492;11.372;2024-03-08T02:47:37;36.73;;;6.83;;
18084;SDS011;9169;44.492;11.372;2024-03-08T02:50:06;38.60;;;6.63;;
18084;SDS011;9169;44.492;11.372;2024-03-08T02:52:35;34.83;;;6.37;;
18084;SDS011;9169;44.492;11.372;2024-03-08T02:55:04;44.23;;;6.70;;
18084;SDS011;9169;44.492;11.372;2024-03-08T02:57:37;44.03;;;10.30;;
18084;SDS011;9169;44.492;11.372;2024-03-08T03:00:06;51.77;;;10.93;;
18084;SDS011;9169;44.492;11.372;2024-03-08T03:02:36;40.90;;;7.43;;
18084;SDS011;9169;44.492;11.372;2024-03-08T03:05:05;37.73;;;6.50;;
18084;SDS011;9169;44.492;11.372;2024-03-08T03:07:36;43.17;;;7.20;;
18084;SDS011;9169;44.492;11.372;2024-03-08T03:10:05;39.40;;;7.30;;
18084;SDS011;9169;44.492;11.372;2024-03-08T03:12:36;45.87;;;8.17;;
18084;SDS011;9169;44.492;11.372;2024-03-08T03:15:05;38.70;;;7.30;;
18084;SDS011;9169;44.492;11.372;2024-03-08T03:17:34;44.70;;;7.67;;
18084;SDS011;9169;44.492;11.372;2024-03-08T03:20:04;41.70;;;7.60;;
18084;SDS011;9169;44.492;11.372;2024-03-08T03:22:36;45.53;;;7.43;;
18084;SDS011;9169;44.492;11.372;2024-03-08T03:25:05;40.57;;;7.10;;
18084;SDS011;9169;44.492;11.372;2024-03-08T03:27:37;42.20;;;7.83;;
18084;SDS011;9169;44.492;11.372;2024-03-08T03:30:07;43.20;;;7.67;;
18084;SDS011;9169;44.492;11.372;2024-03-08T03:32:47;39.30;;;7.30;;
18084;SDS011;9169;44.492;11.372;2024-03-08T03:35:17;40.70;;;8.83;;
18084;SDS011;9169;44.492;11.372;2024-03-08T03:37:47;40.90;;;8.70;;
18084;SDS011;9169;44.492;11.372;2024-03-08T03:40:28;41.53;;;8.77;;
18084;SDS011;9169;44.492;11.372;2024-03-08T03:42:59;40.03;;;8.97;;
18084;SDS011;9169;44.492;11.372;2024-03-08T03:45:28;44.63;;;11.37;;
18084;SDS011;9169;44.492;11.372;2024-03-08T03:48:01;46.10;;;10.83;;
18084;SDS011;9169;44.492;11.372;2024-03-08T03:50:30;48.20;;;12.37;;
18084;SDS011;9169;44.492;11.372;2024-03-08T03:53:01;49.90;;;12.53;;
18084;SDS011;9169;44.492;11.372;2024-03-08T03:55:31;49.77;;;12.97;;
18084;SDS011;9169;44.492;11.372;2024-03-08T03:58:01;51.00;;;14.37;;
18084;SDS011;9169;44.492;11.372;2024-03-08T04:00:30;59.60;;;15.00;;
18084;SDS011;9169;44.492;11.372;2024-03-08T04:02:59;52.70;;;14.50;;
18084;SDS011;9169;44.492;11.372;2024-03-08T04:05:28;56.83;;;14.57;;
18084;SDS011;9169;44.492;11.372;2024-03-08T04:07:57;52.47;;;14.80;;
18084;SDS011;9169;44.492;11.372;2024-03-08T04:10:26;56.97;;;14.37;;
18084;SDS011;9169;44.492;11.372;2024-03-08T04:12:54;55.40;;;15.43;;
18084;SDS011;9169;44.492;11.372;2024-03-08T04:15:25;55.80;;;13.83;;
18084;SDS011;9169;44.492;11.372;2024-03-08T04:17:54;59.87;;;15.60;;
18084;SDS011;9169;44.492;11.372;2024-03-08T04:20:23;52.27;;;13.63;;
18084;SDS011;9169;44.492;11.372;2024-03-08T04:22:52;53.40;;;13.63;;
18084;SDS011;9169;44.492;11.372;2024-03-08T04:25:21;54.67;;;13.27;;
18084;SDS011;9169;44.492;11.372;2024-03-08T04:27:49;53.27;;;12.43;;
18084;SDS011;9169;44.492;11.372;2024-03-08T04:30:19;51.53;;;11.63;;
18084;SDS011;9169;44.492;11.372;2024-03-08T04:32:49;51.40;;;12.50;;
18084;SDS011;9169;44.492;11.372;2024-03-08T04:35:19;53.20;;;12.90;;
18084;SDS011;9169;44.492;11.372;2024-03-08T04:37:48;53.37;;;12.50;;
18084;SDS011;9169;44.492;11.372;2024-03-08T04:40:16;59.87;;;13.17;;
18084;SDS011;9169;44.492;11.372;2024-03-08T04:42:45;61.77;;;13.20;;
18084;SDS011;9169;44.492;11.372;2024-03-08T04:45:17;69.77;;;12.90;;
18084;SDS011;9169;44.492;11.372;2024-03-08T04:47:46;62.93;;;13.20;;
18084;SDS011;9169;44.492;11.372;2024-03-08T04:50:16;58.90;;;12.40;;
18084;SDS011;9169;44.492;11.372;2024-03-08T04:52:44;58.40;;;11.90;;
18084;SDS011;9169;44.492;11.372;2024-03-08T04:55:14;62.43;;;11.50;;
18084;SDS011;9169;44.492;11.372;2024-03-08T04:57:43;66.20;;;13.97;;
18084;SDS011;9169;44.492;11.372;2024-03-08T05:00:13;61.23;;;13.83;;
18084;SDS011;9169;44.492;11.372;2024-03-08T05:02:45;65.47;;;13.20;;
18084;SDS011;9169;44.492;11.372;2024-03-08T05:05:16;63.60;;;12.10;;
18084;SDS011;9169;44.492;11.372;2024-03-08T05:07:45;52.73;;;12.70;;
18084;SDS011;9169;44.492;11.372;2024-03-08T05:10:13;63.13;;;13.83;;
18084;SDS011;9169;44.492;11.372;2024-03-08T05:12:44;69.63;;;14.83;;
18084;SDS011;9169;44.492;11.372;2024-03-08T05:15:13;75.47;;;14.10;;
18084;SDS011;9169;44.492;11.372;2024-03-08T05:17:42;63.33;;;14.20;;
18084;SDS011;9169;44.492;11.372;2024-03-08T05:20:11;74.13;;;15.40;;
18084;SDS011;9169;44.492;11.372;2024-03-08T05:22:42;64.07;;;13.93;;
18084;SDS011;9169;44.492;11.372;2024-03-08T05:25:10;66.77;;;14.37;;
18084;SDS011;9169;44.492;11.372;2024-03-08T05:27:40;62.93;;;14.53;;
18084;SDS011;9169;44.492;11.372;2024-03-08T05:30:09;70.00;;;15.73;;
18084;SDS011;9169;44.492;11.372;2024-03-08T05:32:42;58.67;;;15.63;;
18084;SDS011;9169;44.492;11.372;2024-03-08T05:35:11;59.83;;;14.27;;
18084;SDS011;9169;44.492;11.372;2024-03-08T05:37:44;56.27;;;14.07;;
18084;SDS011;9169;44.492;11.372;2024-03-08T05:40:12;58.13;;;14.20;;
18084;SDS011;9169;44.492;11.372;2024-03-08T05:42:41;61.00;;;13.30;;
18084;SDS011;9169;44.492;11.372;2024-03-08T05:45:10;78.90;;;14.70;;
18084;SDS011;9169;44.492;11.372;2024-03-08T05:47:41;57.43;;;15.07;;
18084;SDS011;9169;44.492;11.372;2024-03-08T05:50:10;55.10;;;12.67;;
18084;SDS011;9169;44.492;11.372;2024-03-08T05:52:38;66.70;;;13.90;;
18084;SDS011;9169;44.492;11.372;2024-03-08T05:55:09;64.83;;;15.00;;
18084;SDS011;9169;44.492;11.372;2024-03-08T05:57:37;63.60;;;14.00;;
18084;SDS011;9169;44.492;11.372;2024-03-08T06:00:07;61.10;;;13.40;;
18084;SDS011;9169;44.492;11.372;2024-03-08T06:02:40;59.77;;;13.10;;
18084;SDS011;9169;44.492;11.372;2024-03-08T06:05:09;55.57;;;12.70;;
18084;SDS011;9169;44.492;11.372;2024-03-08T06:07:38;60.00;;;14.03;;
18084;SDS011;9169;44.492;11.372;2024-03-08T06:10:09;59.77;;;12.70;;
18084;SDS011;9169;44.492;11.372;2024-03-08T06:12:42;58.77;;;12.00;;
18084;SDS011;9169;44.492;11.372;2024-03-08T06:15:14;62.40;;;13.23;;
18084;SDS011;9169;44.492;11.372;2024-03-08T06:17:42;64.63;;;14.87;;
18084;SDS011;9169;44.492;11.372;2024-03-08T06:20:11;75.93;;;15.70;;
18084;SDS011;9169;44.492;11.372;2024-03-08T06:22:40;64.43;;;14.20;;
18084;SDS011;9169;44.492;11.372;2024-03-08T06:25:11;73.60;;;16.43;;
18084;SDS011;9169;44.492;11.372;2024-03-08T06:27:40;67.70;;;14.13;;
18084;SDS011;9169;44.492;11.372;2024-03-08T06:30:10;64.37;;;13.40;;
18084;SDS011;9169;44.492;11.372;2024-03-08T06:32:40;63.97;;;13.40;;
18084;SDS011;9169;44.492;11.372;2024-03-08T06:35:09;70.20;;;14.10;;
18084;SDS011;9169;44.492;11.372;2024-03-08T06:37:38;59.13;;;13.23;;
18084;SDS011;9169;44.492;11.372;2024-03-08T06:40:11;61.07;;;12.63;;
18084;SDS011;9169;44.492;11.372;2024-03-08T06:42:41;57.40;;;10.13;;
18084;SDS011;9169;44.492;11.372;2024-03-08T06:45:10;58.10;;;10.40;;
18084;SDS011;9169;44.492;11.372;2024-03-08T06:47:39;55.23;;;10.40;;
18084;SDS011;9169;44.492;11.372;2024-03-08T06:50:09;50.20;;;9.47;;
18084;SDS011;9169;44.492;11.372;2024-03-08T06:52:38;49.63;;;9.90;;
18084;SDS011;9169;44.492;11.372;2024-03-08T06:55:07;50.43;;;8.83;;
18084;SDS011;9169;44.492;11.372;2024-03-08T06:57:40;56.67;;;9.67;;
18084;SDS011;9169;44.492;11.372;2024-03-08T07:00:09;53.90;;;8.90;;
18084;SDS011;9169;44.492;11.372;2024-03-08T07:02:40;52.00;;;9.00;;
18084;SDS011;9169;44.492;11.372;2024-03-08T07:05:09;50.60;;;9.17;;
18084;SDS011;9169;44.492;11.372;2024-03-08T07:07:37;56.20;;;9.00;;
18084;SDS011;9169;44.492;11.372;2024-03-08T07:10:08;52.33;;;8.20;;
18084;SDS011;9169;44.492;11.372;2024-03-08T07:12:40;47.97;;;8.10;;
18084;SDS011;9169;44.492;11.372;2024-03-08T07:15:09;44.00;;;6.00;;
18084;SDS011;9169;44.492;11.372;2024-03-08T07:17:40;48.80;;;5.70;;
18084;SDS011;9169;44.492;11.372;2024-03-08T07:20:11;45.10;;;5.47;;
18084;SDS011;9169;44.492;11.372;2024-03-08T07:22:41;39.70;;;5.07;;
18084;SDS011;9169;44.492;11.372;2024-03-08T07:25:10;38.60;;;5.87;;
18084;SDS011;9169;44.492;11.372;2024-03-08T07:27:48;46.23;;;9.60;;
18084;SDS011;9169;44.492;11.372;2024-03-08T07:30:18;44.73;;;9.93;;
18084;SDS011;9169;44.492;11.372;2024-03-08T07:33:04;46.90;;;10.20;;
18084;SDS011;9169;44.492;11.372;2024-03-08T07:35:34;44.10;;;9.87;;
18084;SDS011;9169;44.492;11.372;2024-03-08T07:38:04;41.40;;;9.30;;
18084;SDS011;9169;44.492;11.372;2024-03-08T07:40:35;39.27;;;9.20;;
18084;SDS011;9169;44.492;11.372;2024-03-08T07:43:07;28.27;;;8.87;;
18084;SDS011;9169;44.492;11.372;2024-03-08T07:45:37;29.73;;;9.40;;
18084;SDS011;9169;44.492;11.372;2024-03-08T07:48:06;24.07;;;10.90;;
18084;SDS011;9169;44.492;11.372;2024-03-08T07:50:36;24.93;;;11.47;;
18084;SDS011;9169;44.492;11.372;2024-03-08T07:53:05;22.07;;;10.33;;
18084;SDS011;9169;44.492;11.372;2024-03-08T07:55:35;19.27;;;12.23;;
18084;SDS011;9169;44.492;11.372;2024-03-08T07:58:04;27.03;;;13.77;;
18084;SDS011;9169;44.492;11.372;2024-03-08T08:00:34;26.87;;;15.13;;
18084;SDS011;9169;44.492;11.372;2024-03-08T08:03:03;31.33;;;15.90;;
18084;SDS011;9169;44.492;11.372;2024-03-08T08:05:32;24.57;;;14.70;;
18084;SDS011;9169;44.492;11.372;2024-03-08T08:08:02;28.97;;;14.50;;
18084;SDS011;9169;44.492;11.372;2024-03-08T08:10:33;22.30;;;14.00;;
18084;SDS011;9169;44.492;11.372;2024-03-08T08:13:02;23.37;;;15.37;;
18084;SDS011;9169;44.492;11.372;2024-03-08T08:15:31;37.03;;;16.47;;
18084;SDS011;9169;44.492;11.372;2024-03-08T08:18:02;28.90;;;16.37;;
18084;SDS011;9169;44.492;11.372;2024-03-08T08:20:32;29.23;;;16.40;;
18084;SDS011;9169;44.492;11.372;2024-03-08T08:23:01;25.30;;;14.10;;
18084;SDS011;9169;44.492;11.372;2024-03-08T08:25:30;28.27;;;13.27;;
18084;SDS011;9169;44.492;11.372;2024-03-08T08:28:01;25.10;;;13.33;;
18084;SDS011;9169;44.492;11.372;2024-03-08T08:30:30;27.87;;;14.10;;
18084;SDS011;9169;44.492;11.372;2024-03-08T08:33:00;26.60;;;13.90;;
18084;SDS011;9169;44.492;11.372;2024-03-08T08:35:30;26.17;;;13.37;;
18084;SDS011;9169;44.492;11.372;2024-03-08T08:38:00;26.27;;;12.47;;
18084;SDS011;9169;44.492;11.372;2024-03-08T08:40:30;26.20;;;13.80;;
18084;SDS011;9169;44.492;11.372;2024-03-08T08:42:59;28.40;;;12.77;;
18084;SDS011;9169;44.492;11.372;2024-03-08T08:45:31;28.17;;;15.27;;
18084;SDS011;9169;44.492;11.372;2024-03-08T08:48:00;30.47;;;15.00;;
18084;SDS011;9169;44.492;11.372;2024-03-08T08:50:28;50.60;;;13.73;;
18084;SDS011;9169;44.492;11.372;2024-03-08T08:52:59;32.07;;;14.67;;
18084;SDS011;9169;44.492;11.372;2024-03-08T08:55:27;31.17;;;14.07;;
18084;SDS011;9169;44.492;11.372;2024-03-08T08:57:58;27.57;;;14.80;;
18084;SDS011;9169;44.492;11.372;2024-03-08T09:00:26;31.73;;;14.20;;
18084;SDS011;9169;44.492;11.372;2024-03-08T09:02:57;33.43;;;14.83;;
18084;SDS011;9169;44.492;11.372;2024-03-08T09:05:30;28.10;;;14.40;;
18084;SDS011;9169;44.492;11.372;2024-03-08T09:08:01;32.53;;;15.80;;
18084;SDS011;9169;44.492;11.372;2024-03-08T09:10:30;32.30;;;15.17;;
18084;SDS011;9169;44.492;11.372;2024-03-08T09:13:00;37.57;;;15.77;;
18084;SDS011;9169;44.492;11.372;2024-03-08T09:15:31;41.53;;;17.30;;
18084;SDS011;9169;44.492;11.372;2024-03-08T09:17:59;41.43;;;16.80;;
18084;SDS011;9169;44.492;11.372;2024-03-08T09:20:28;38.70;;;17.80;;
18084;SDS011;9169;44.492;11.372;2024-03-08T09:22:59;38.60;;;17.97;;
18084;SDS011;9169;44.492;11.372;2024-03-08T09:25:27;38.73;;;16.00;;
18084;SDS011;9169;44.492;11.372;2024-03-08T09:27:56;34.37;;;16.90;;
18084;SDS011;9169;44.492;11.372;2024-03-08T09:30:25;31.00;;;15.83;;
18084;SDS011;9169;44.492;11.372;2024-03-08T09:32:54;32.57;;;17.43;;
18084;SDS011;9169;44.492;11.372;2024-03-08T09:35:23;32.13;;;16.90;;
18084;SDS011;9169;44.492;11.372;2024-03-08T09:37:54;36.47;;;17.13;;
18084;SDS011;9169;44.492;11.372;2024-03-08T09:40:22;34.80;;;16.20;;
18084;SDS011;9169;44.492;11.372;2024-03-08T09:42:52;35.47;;;16.60;;
18084;SDS011;9169;44.492;11.372;2024-03-08T09:45:22;36.00;;;16.37;;
18084;SDS011;9169;44.492;11.372;2024-03-08T09:47:51;35.03;;;16.70;;
18084;SDS011;9169;44.492;11.372;2024-03-08T09:50:21;36.13;;;17.10;;
18084;SDS011;9169;44.492;11.372;2024-03-08T09:52:50;37.53;;;16.70;;
18084;SDS011;9169;44.492;11.372;2024-03-08T09:55:20;35.60;;;17.60;;
18084;SDS011;9169;44.492;11.372;2024-03-08T09:57:51;30.10;;;15.30;;
18084;SDS011;9169;44.492;11.372;2024-03-08T10:00:38;24.67;;;14.30;;
18084;SDS011;9169;44.492;11.372;2024-03-08T10:03:09;25.93;;;13.90;;
18084;SDS011;9169;44.492;11.372;2024-03-08T10:05:41;29.00;;;16.87;;
18084;SDS011;9169;44.492;11.372;2024-03-08T10:08:11;24.50;;;14.47;;
18084;SDS011;9169;44.492;11.372;2024-03-08T10:10:41;24.33;;;15.03;;
18084;SDS011;9169;44.492;11.372;2024-03-08T10:13:10;20.10;;;13.30;;
18084;SDS011;9169;44.492;11.372;2024-03-08T10:15:40;18.67;;;13.07;;
18084;SDS011;9169;44.492;11.372;2024-03-08T10:18:09;19.67;;;12.83;;
18084;SDS011;9169;44.492;11.372;2024-03-08T10:20:38;21.50;;;13.67;;
18084;SDS011;9169;44.492;11.372;2024-03-08T10:23:07;19.73;;;12.20;;
18084;SDS011;9169;44.492;11.372;2024-03-08T10:25:37;21.50;;;12.87;;
18084;SDS011;9169;44.492;11.372;2024-03-08T10:28:07;17.13;;;11.90;;
18084;SDS011;9169;44.492;11.372;2024-03-08T10:30:36;18.00;;;12.50;;
18084;SDS011;9169;44.492;11.372;2024-03-08T10:33:04;17.17;;;12.73;;
18084;SDS011;9169;44.492;11.372;2024-03-08T10:35:33;20.60;;;12.17;;
18084;SDS011;9169;44.492;11.372;2024-03-08T10:38:02;17.87;;;12.57;;
18084;SDS011;9169;44.492;11.372;2024-03-08T10:40:35;18.70;;;11.60;;
18084;SDS011;9169;44.492;11.372;2024-03-08T10:43:11;16.57;;;10.70;;
18084;SDS011;9169;44.492;11.372;2024-03-08T10:45:47;19.60;;;14.77;;
18084;SDS011;9169;44.492;11.372;2024-03-08T10:48:20;16.73;;;11.07;;
18084;SDS011;9169;44.492;11.372;2024-03-08T10:51:00;17.93;;;14.00;;
18084;SDS011;9169;44.492;11.372;2024-03-08T10:53:31;17.03;;;12.77;;
18084;SDS011;9169;44.492;11.372;2024-03-08T10:56:04;22.80;;;13.67;;
18084;SDS011;9169;44.492;11.372;2024-03-08T10:58:35;17.93;;;12.17;;
18084;SDS011;9169;44.492;11.372;2024-03-08T11:01:05;17.83;;;11.57;;
18084;SDS011;9169;44.492;11.372;2024-03-08T11:03:43;18.93;;;11.23;;
18084;SDS011;9169;44.492;11.372;2024-03-08T11:06:14;19.40;;;10.30;;
18084;SDS011;9169;44.492;11.372;2024-03-08T11:08:45;15.37;;;10.97;;
18084;SDS011;9169;44.492;11.372;2024-03-08T11:11:23;16.40;;;10.00;;
18084;SDS011;9169;44.492;11.372;2024-03-08T11:14:00;19.00;;;10.90;;
18084;SDS011;9169;44.492;11.372;2024-03-08T11:16:39;15.53;;;9.60;;
18084;SDS011;9169;44.492;11.372;2024-03-08T11:19:27;20.10;;;10.00;;
18084;SDS011;9169;44.492;11.372;2024-03-08T11:21:59;16.83;;;9.60;;
18084;SDS011;9169;44.492;11.372;2024-03-08T11:24:36;14.40;;;9.13;;
18084;SDS011;9169;44.492;11.372;2024-03-08T11:27:09;14.67;;;10.00;;
18084;SDS011;9169;44.492;11.372;2024-03-08T11:29:40;16.40;;;9.00;;
18084;SDS011;9169;44.492;11.372;2024-03-08T11:32:09;16.27;;;8.23;;
18084;SDS011;9169;44.492;11.372;2024-03-08T11:34:40;14.37;;;9.50;;
18084;SDS011;9169;44.492;11.372;2024-03-08T11:37:12;11.10;;;7.83;;
18084;SDS011;9169;44.492;11.372;2024-03-08T11:39:46;11.97;;;7.90;;
18084;SDS011;9169;44.492;11.372;2024-03-08T11:42:16;12.53;;;8.10;;
18084;SDS011;9169;44.492;11.372;2024-03-08T11:44:46;15.40;;;8.23;;
18084;SDS011;9169;44.492;11.372;2024-03-08T11:47:15;12.00;;;7.43;;
18084;SDS011;9169;44.492;11.372;2024-03-08T11:49:44;11.00;;;6.23;;
18084;SDS011;9169;44.492;11.372;2024-03-08T11:52:15;10.97;;;6.37;;
18084;SDS011;9169;44.492;11.372;2024-03-08T11:54:48;13.53;;;7.07;;
18084;SDS011;9169;44.492;11.372;2024-03-08T11:57:21;10.80;;;6.60;;
18084;SDS011;9169;44.492;11.372;2024-03-08T11:59:53;13.10;;;6.67;;
18084;SDS011;9169;44.492;11.372;2024-03-08T12:02:23;10.30;;;6.50;;
18084;SDS011;9169;44.492;11.372;2024-03-08T12:04:55;12.83;;;6.50;;
18084;SDS011;9169;44.492;11.372;2024-03-08T12:07:26;10.27;;;5.80;;
18084;SDS011;9169;44.492;11.372;2024-03-08T12:10:17;15.33;;;7.10;;
18084;SDS011;9169;44.492;11.372;2024-03-08T12:12:48;11.97;;;6.10;;
18084;SDS011;9169;44.492;11.372;2024-03-08T12:15:20;15.30;;;7.07;;
18084;SDS011;9169;44.492;11.372;2024-03-08T12:17:50;12.53;;;6.50;;
18084;SDS011;9169;44.492;11.372;2024-03-08T12:20:20;11.73;;;7.37;;
18084;SDS011;9169;44.492;11.372;2024-03-08T12:22:50;15.73;;;6.77;;
18084;SDS011;9169;44.492;11.372;2024-03-08T12:25:20;11.93;;;5.90;;
18084;SDS011;9169;44.492;11.372;2024-03-08T12:27:49;11.33;;;5.70;;
18084;SDS011;9169;44.492;11.372;2024-03-08T12:30:21;9.80;;;4.97;;
18084;SDS011;9169;44.492;11.372;2024-03-08T12:32:55;10.77;;;4.80;;
18084;SDS011;9169;44.492;11.372;2024-03-08T12:35:27;9.33;;;5.37;;
18084;SDS011;9169;44.492;11.372;2024-03-08T12:37:58;10.33;;;5.00;;
18084;SDS011;9169;44.492;11.372;2024-03-08T12:40:28;12.00;;;6.80;;
18084;SDS011;9169;44.492;11.372;2024-03-08T12:42:58;10.17;;;6.20;;
18084;SDS011;9169;44.492;11.372;2024-03-08T12:45:29;9.60;;;5.77;;
18084;SDS011;9169;44.492;11.372;2024-03-08T12:47:57;10.60;;;5.80;;
18084;SDS011;9169;44.492;11.372;2024-03-08T12:50:26;11.20;;;6.10;;
18084;SDS011;9169;44.492;11.372;2024-03-08T12:52:57;20.43;;;6.73;;
18084;SDS011;9169;44.492;11.372;2024-03-08T12:55:25;9.57;;;5.80;;
18084;SDS011;9169;44.492;11.372;2024-03-08T12:57:55;14.70;;;5.97;;
18084;SDS011;9169;44.492;11.372;2024-03-08T13:00:25;10.87;;;5.57;;
18084;SDS011;9169;44.492;11.372;2024-03-08T13:02:56;16.77;;;5.87;;
18084;SDS011;9169;44.492;11.372;2024-03-08T13:05:25;15.40;;;6.63;;
18084;SDS011;9169;44.492;11.372;2024-03-08T13:07:54;15.40;;;8.10;;
18084;SDS011;9169;44.492;11.372;2024-03-08T13:10:23;16.77;;;8.87;;
18084;SDS011;9169;44.492;11.372;2024-03-08T13:12:52;11.47;;;8.43;;
18084;SDS011;9169;44.492;11.372;2024-03-08T13:15:21;15.33;;;8.00;;
18084;SDS011;9169;44.492;11.372;2024-03-08T13:17:50;14.60;;;8.83;;
18084;SDS011;9169;44.492;11.372;2024-03-08T13:20:21;15.33;;;9.40;;
18084;SDS011;9169;44.492;11.372;2024-03-08T13:22:50;13.80;;;7.90;;
18084;SDS011;9169;44.492;11.372;2024-03-08T13:25:19;12.80;;;8.07;;
18084;SDS011;9169;44.492;11.372;2024-03-08T13:27:48;19.80;;;8.80;;
18084;SDS011;9169;44.492;11.372;2024-03-08T13:30:17;14.40;;;8.80;;
18084;SDS011;9169;44.492;11.372;2024-03-08T13:32:51;18.10;;;8.90;;
18084;SDS011;9169;44.492;11.372;2024-03-08T13:35:22;15.33;;;8.80;;
18084;SDS011;9169;44.492;11.372;2024-03-08T13:37:53;22.30;;;8.10;;
18084;SDS011;9169;44.492;11.372;2024-03-08T13:40:22;15.33;;;8.70;;
18084;SDS011;9169;44.492;11.372;2024-03-08T13:42:51;14.73;;;8.00;;
18084;SDS011;9169;44.492;11.372;2024-03-08T13:45:20;14.77;;;7.73;;
18084;SDS011;9169;44.492;11.372;2024-03-08T13:47:51;13.83;;;8.00;;
18084;SDS011;9169;44.492;11.372;2024-03-08T13:50:23;16.70;;;8.07;;
18084;SDS011;9169;44.492;11.372;2024-03-08T13:52:52;17.40;;;8.27;;
18084;SDS011;9169;44.492;11.372;2024-03-08T13:55:21;20.53;;;8.80;;
18084;SDS011;9169;44.492;11.372;2024-03-08T13:57:52;13.83;;;8.20;;
18084;SDS011;9169;44.492;11.372;2024-03-08T14:00:21;12.93;;;8.13;;
18084;SDS011;9169;44.492;11.372;2024-03-08T14:02:53;16.67;;;8.07;;
18084;SDS011;9169;44.492;11.372;2024-03-08T14:05:23;15.30;;;7.93;;
18084;SDS011;9169;44.492;11.372;2024-03-08T14:07:52;11.90;;;7.97;;
18084;SDS011;9169;44.492;11.372;2024-03-08T14:10:22;12.33;;;8.00;;
18084;SDS011;9169;44.492;11.372;2024-03-08T14:12:51;9.23;;;7.20;;
18084;SDS011;9169;44.492;11.372;2024-03-08T14:15:20;15.90;;;8.30;;
18084;SDS011;9169;44.492;11.372;2024-03-08T14:17:52;17.50;;;8.80;;
18084;SDS011;9169;44.492;11.372;2024-03-08T14:20:21;16.90;;;8.83;;
18084;SDS011;9169;44.492;11.372;2024-03-08T14:22:53;14.27;;;8.30;;
18084;SDS011;9169;44.492;11.372;2024-03-08T14:25:22;13.63;;;8.40;;
18084;SDS011;9169;44.492;11.372;2024-03-08T14:27:52;11.50;;;7.60;;
18084;SDS011;9169;44.492;11.372;2024-03-08T14:30:25;20.20;;;9.77;;
18084;SDS011;9169;44.492;11.372;2024-03-08T14:33:05;15.90;;;9.97;;
18084;SDS011;9169;44.492;11.372;2024-03-08T14:35:37;13.70;;;8.33;;
18084;SDS011;9169;44.492;11.372;2024-03-08T14:38:06;16.43;;;9.50;;
18084;SDS011;9169;44.492;11.372;2024-03-08T14:40:37;14.87;;;8.20;;
18084;SDS011;9169;44.492;11.372;2024-03-08T14:43:05;13.40;;;8.70;;
18084;SDS011;9169;44.492;11.372;2024-03-08T14:45:34;15.80;;;8.50;;